Hlavní strana
METAR-TAF:

METAR-TAF

Letiště :

Fudžajra, Spojené arabské emiráty

zeměpisná šířka: 25-06N, zeměpisná délka: 056-20E, výška: 28 m

Aktuální stav počasí

Zpráva byla vytvořena před 31 minutami, v 09:00 UTC
Východoseverovýchodní vítr 9 kt
Teplota 26°C
Vlhkost vzduchu 42%
Tlak 1019 hPa
Viditelnost: 8000 m

METAR: OMFJ 190900Z 06009KT 8000 NSC 26/12 Q1019 RMK A3010

Čas: 13:31 (09:31 UTC)

Předpověď počasí

Zpráva byla vytvořena před 4 hodinami a 31 minutami, v 05:00 UTC
Předpověď platná od 19 v 06 UTC do 20 v 12 UTC
Západoseverozápadní vítr 8 kt
Viditelnost: 8000 m
Změna
od 19 v 07 UTC do 19 v 09 UTC
Východní vítr 10 kt
Změna
od 19 v 14 UTC do 19 v 16 UTC
vítr z různých směrů 3 kt
Změna
od 19 v 21 UTC do 19 v 23 UTC
Západoseverozápadní vítr 8 kt
Změna
od 20 v 06 UTC do 20 v 08 UTC
Východní vítr 7 kt

TAF: OMFJ 190500Z 1906/2012 29008KT 8000 NSC BECMG 1907/1909 09010KT BECMG 1914/1916 VRB03KT BECMG 1921/1923 29008KT BECMG 2006/2008 08007KT

Stav a předpovědi počasí z více než 4 000 letišť (zprávy METAR a TAF).

Červené a žluté tečky na mapě představují dostupné meteorologické stanice.

Když kurzor umístíte na tečku, zobrazí se název stanice.

Pak kliknutím zobrazíte stav a předpověď počasí.

Chcete-li změnit mapu, kliknutím na zelené tlačítko se znaménkem +mapu přiblížíte, kliknutím na zelené tlačítko se znaménkem – mapu oddálíte a kliknutím na zelené šipky přejdete na sousední mapy.


METAR-TAF: